createdAt,value
2018-05-08T00:02:23.486Z,66.90
2018-05-08T00:04:51.564Z,66.90
2018-05-08T00:07:19.636Z,67.30
2018-05-08T00:09:47.718Z,68.40
2018-05-08T00:12:15.865Z,68.10
2018-05-08T00:14:43.965Z,68.50
2018-05-08T00:17:12.046Z,68.60
2018-05-08T00:19:40.105Z,68.80
2018-05-08T00:22:08.191Z,69.30
2018-05-08T00:24:36.733Z,69.10
2018-05-08T00:27:04.875Z,69.30
2018-05-08T00:29:32.967Z,70.00
2018-05-08T00:32:01.149Z,70.20
2018-05-08T00:34:29.218Z,70.10
2018-05-08T00:36:57.313Z,70.00
2018-05-08T00:39:25.480Z,69.80
2018-05-08T00:41:53.500Z,70.00
2018-05-08T00:44:22.334Z,70.10
2018-05-08T00:46:50.483Z,70.20
2018-05-08T00:49:19.313Z,70.10
2018-05-08T00:51:47.402Z,70.10
2018-05-08T00:54:16.306Z,70.20
2018-05-08T00:56:44.405Z,70.70
2018-05-08T00:59:12.506Z,70.70
2018-05-08T01:01:40.578Z,71.10
2018-05-08T01:04:08.650Z,71.40
2018-05-08T01:06:36.731Z,71.50
2018-05-08T01:09:04.794Z,71.80
2018-05-08T01:11:32.979Z,72.00
2018-05-08T01:14:00.997Z,72.30
2018-05-08T01:16:29.478Z,71.80
2018-05-08T01:18:57.601Z,71.70
2018-05-08T01:21:26.209Z,71.60
2018-05-08T01:23:55.078Z,72.50
2018-05-08T01:26:23.589Z,72.50
2018-05-08T01:28:51.784Z,72.10
2018-05-08T01:31:22.871Z,72.50
2018-05-08T01:33:50.943Z,72.70
2018-05-08T01:36:19.353Z,72.90
2018-05-08T01:38:47.461Z,73.20
2018-05-08T01:41:16.459Z,73.10
2018-05-08T01:43:44.530Z,73.30
2018-05-08T01:46:12.593Z,73.00
2018-05-08T01:48:40.656Z,73.30
2018-05-08T01:51:08.722Z,73.50
2018-05-08T01:53:36.790Z,73.60
2018-05-08T01:56:08.384Z,73.90
2018-05-08T01:58:36.867Z,73.60
2018-05-08T02:01:04.962Z,73.40
2018-05-08T02:03:33.023Z,73.80
2018-05-08T02:06:01.513Z,73.20
2018-05-08T02:08:30.366Z,72.40
2018-05-08T02:10:58.441Z,72.30
2018-05-08T02:13:26.817Z,72.50
2018-05-08T02:15:54.885Z,73.50
2018-05-08T02:18:22.961Z,73.80
2018-05-08T02:20:51.043Z,74.30
2018-05-08T02:23:19.133Z,74.20
2018-05-08T02:25:48.056Z,74.10
2018-05-08T02:28:16.066Z,74.10
2018-05-08T02:30:44.716Z,73.90
2018-05-08T02:33:12.806Z,74.50
2018-05-08T02:35:41.132Z,75.00
2018-05-08T02:38:10.802Z,75.00
2018-05-08T02:40:38.866Z,75.00
2018-05-08T02:43:06.959Z,74.90
2018-05-08T02:45:35.021Z,74.80
2018-05-08T02:48:04.238Z,75.10
2018-05-08T02:50:32.315Z,74.80
2018-05-08T02:53:00.430Z,74.90
2018-05-08T02:55:29.324Z,74.30
2018-05-08T02:57:57.404Z,74.30
2018-05-08T03:00:25.478Z,75.20
2018-05-08T03:02:58.065Z,76.00
2018-05-08T03:05:26.155Z,76.10
2018-05-08T03:07:55.011Z,75.40
2018-05-08T03:10:23.124Z,75.50
2018-05-08T03:12:51.196Z,76.00
2018-05-08T03:15:19.297Z,76.40
2018-05-08T03:17:48.229Z,77.00
2018-05-08T03:20:16.325Z,76.90
2018-05-08T03:22:44.406Z,77.10
2018-05-08T03:25:13.330Z,76.70
2018-05-08T03:27:42.153Z,77.10
2018-05-08T03:30:10.283Z,77.10
2018-05-08T03:32:38.394Z,77.10
2018-05-08T03:35:08.452Z,76.90
2018-05-08T03:37:37.295Z,77.50
2018-05-08T03:40:05.417Z,77.30
2018-05-08T03:42:33.452Z,77.40
2018-05-08T03:45:01.514Z,77.30
2018-05-08T03:47:31.739Z,77.00
2018-05-08T03:49:59.857Z,77.10
2018-05-08T03:52:28.680Z,77.00
2018-05-08T03:54:57.316Z,76.90
2018-05-08T03:57:26.226Z,76.70
2018-05-08T03:59:54.227Z,76.70
2018-05-08T04:02:36.358Z,77.10
2018-05-08T04:05:16.152Z,77.10
2018-05-08T04:07:56.125Z,77.10
2018-05-08T04:10:24.767Z,77.30
2018-05-08T04:12:56.405Z,77.00
2018-05-08T04:15:24.496Z,77.00
2018-05-08T04:17:53.282Z,77.50
2018-05-08T04:20:22.678Z,77.30
2018-05-08T04:22:55.362Z,75.20
2018-05-08T04:25:27.739Z,73.40
2018-05-08T04:27:58.192Z,70.20
2018-05-08T04:30:26.289Z,70.20
2018-05-08T04:32:54.896Z,68.00
2018-05-08T04:35:26.954Z,67.10
2018-05-08T04:37:57.537Z,65.10
2018-05-08T04:40:30.006Z,64.00
2018-05-08T04:42:59.369Z,62.60
2018-05-08T04:45:27.450Z,62.60
2018-05-08T04:47:56.294Z,61.60
2018-05-08T04:50:24.377Z,61.60
2018-05-08T04:52:52.474Z,60.90
2018-05-08T04:55:20.597Z,60.40
2018-05-08T04:57:49.135Z,60.80
2018-05-08T05:00:17.205Z,59.50
2018-05-08T05:02:46.168Z,59.90
2018-05-08T05:05:14.121Z,59.90
2018-05-08T05:07:42.184Z,59.70
2018-05-08T05:10:10.257Z,59.60
2018-05-08T05:12:38.321Z,59.70
2018-05-08T05:15:06.401Z,59.90
2018-05-08T05:17:34.479Z,59.80
2018-05-08T05:20:02.559Z,59.50
2018-05-08T05:22:32.309Z,59.10
2018-05-08T05:25:00.381Z,59.70
2018-05-08T05:27:29.216Z,59.40
2018-05-08T05:29:57.792Z,59.40
2018-05-08T05:32:25.862Z,58.80
2018-05-08T05:34:53.932Z,58.90
2018-05-08T05:37:22.006Z,58.90
2018-05-08T05:39:50.054Z,60.10
2018-05-08T05:42:18.122Z,61.40
2018-05-08T05:44:46.212Z,62.40
2018-05-08T05:47:14.629Z,62.90
2018-05-08T05:49:42.692Z,63.20
2018-05-08T05:52:10.751Z,63.20
2018-05-08T05:54:38.829Z,63.80
2018-05-08T05:57:06.893Z,63.80
2018-05-08T05:59:34.953Z,64.70
2018-05-08T06:02:03.640Z,64.30
2018-05-08T06:04:31.712Z,66.00
2018-05-08T06:06:59.780Z,66.60
2018-05-08T06:09:27.849Z,67.30
2018-05-08T06:11:55.914Z,67.60
2018-05-08T06:14:23.980Z,67.70
2018-05-08T06:16:52.046Z,68.20
2018-05-08T06:19:20.104Z,68.70
2018-05-08T06:21:48.942Z,68.60
2018-05-08T06:24:16.997Z,68.40
2018-05-08T06:26:45.069Z,67.20
2018-05-08T06:29:13.131Z,67.20
2018-05-08T06:31:41.965Z,66.10
2018-05-08T06:34:10.045Z,66.00
2018-05-08T06:36:38.144Z,65.00
2018-05-08T06:39:06.221Z,64.60
2018-05-08T06:41:34.305Z,64.20
2018-05-08T06:44:02.585Z,64.20
2018-05-08T06:46:30.670Z,63.90
2018-05-08T06:48:59.241Z,63.20
2018-05-08T06:51:27.316Z,62.60
2018-05-08T06:53:57.498Z,62.30
2018-05-08T06:56:26.325Z,62.50
2018-05-08T06:58:54.647Z,62.30
2018-05-08T07:01:22.712Z,61.00
2018-05-08T07:03:52.827Z,61.30
2018-05-08T07:06:20.961Z,61.60
2018-05-08T07:08:49.052Z,60.90
2018-05-08T07:11:17.112Z,60.80
2018-05-08T07:13:45.177Z,61.80
2018-05-08T07:16:17.487Z,61.30
2018-05-08T07:18:45.400Z,60.50
2018-05-08T07:21:13.466Z,60.50
2018-05-08T07:23:41.554Z,59.90
2018-05-08T07:26:09.669Z,59.10
2018-05-08T07:28:37.721Z,58.80
2018-05-08T07:31:06.329Z,59.40
2018-05-08T07:33:34.357Z,56.50
2018-05-08T07:36:02.421Z,54.60
2018-05-08T07:38:30.519Z,52.80
2018-05-08T07:40:58.624Z,53.90
2018-05-08T07:43:27.493Z,54.40
2018-05-08T07:45:55.615Z,53.90
2018-05-08T07:48:23.697Z,53.40
2018-05-08T07:50:51.783Z,53.40
2018-05-08T07:53:20.148Z,53.60
2018-05-08T07:55:48.233Z,52.50
2018-05-08T07:58:18.236Z,51.90
2018-05-08T08:00:46.337Z,51.50
2018-05-08T08:03:14.471Z,51.00
2018-05-08T08:05:42.586Z,51.30
2018-05-08T08:08:11.664Z,51.60
2018-05-08T08:10:39.746Z,51.50
2018-05-08T08:13:07.874Z,49.80
2018-05-08T08:15:37.478Z,48.60
2018-05-08T08:18:06.567Z,49.30
2018-05-08T08:20:34.677Z,48.70
2018-05-08T08:23:03.193Z,48.70
2018-05-08T08:25:32.534Z,48.00
2018-05-08T08:28:00.621Z,48.00
2018-05-08T08:30:28.769Z,48.10
2018-05-08T08:32:57.528Z,48.00
2018-05-08T08:35:25.798Z,46.80
2018-05-08T08:37:53.925Z,45.90
2018-05-08T08:40:22.275Z,46.00
2018-05-08T08:42:51.455Z,44.60
2018-05-08T08:45:19.578Z,44.50
2018-05-08T08:47:47.783Z,43.50
2018-05-08T08:50:15.823Z,43.20
2018-05-08T08:52:44.002Z,44.20
2018-05-08T08:55:12.143Z,44.80
2018-05-08T08:57:40.997Z,45.90
2018-05-08T09:00:09.169Z,45.20
2018-05-08T09:02:37.859Z,43.30
2018-05-08T09:05:06.501Z,42.90
2018-05-08T09:07:34.593Z,43.40
2018-05-08T09:10:02.790Z,40.60
2018-05-08T09:12:31.650Z,40.30
2018-05-08T09:14:59.753Z,40.00
2018-05-08T09:17:27.836Z,39.70
2018-05-08T09:19:55.912Z,37.90
2018-05-08T09:22:24.779Z,34.50
2018-05-08T09:24:52.859Z,34.40
2018-05-08T09:27:20.928Z,29.30
2018-05-08T09:29:49.113Z,27.00
2018-05-08T09:32:17.938Z,22.20
2018-05-08T09:34:46.021Z,22.20
2018-05-08T09:37:14.090Z,19.50
2018-05-08T09:39:42.455Z,18.30
2018-05-08T09:42:10.505Z,17.40
2018-05-08T09:44:38.573Z,16.50
2018-05-08T09:47:08.308Z,15.60
2018-05-08T09:49:36.419Z,15.60
2018-05-08T09:52:04.491Z,15.10
2018-05-08T09:54:32.668Z,14.80
2018-05-08T09:57:00.750Z,15.80
2018-05-08T09:59:28.901Z,15.10
2018-05-08T10:01:57.145Z,15.60
2018-05-08T10:04:26.346Z,16.30
2018-05-08T10:06:54.427Z,16.20
2018-05-08T10:09:23.400Z,16.80
2018-05-08T10:11:51.449Z,17.60
2018-05-08T10:14:19.525Z,18.20
2018-05-08T10:16:47.876Z,18.70
2018-05-08T10:19:16.055Z,20.10
2018-05-08T10:21:52.111Z,19.50
2018-05-08T10:24:20.260Z,21.20
2018-05-08T10:26:48.339Z,21.50
2018-05-08T10:29:16.385Z,21.80
2018-05-08T10:31:44.562Z,23.00
2018-05-08T10:34:12.620Z,22.50
2018-05-08T10:36:40.685Z,23.00
2018-05-08T10:39:08.757Z,24.30
2018-05-08T10:41:36.833Z,24.80
2018-05-08T10:44:04.889Z,24.40
2018-05-08T10:46:32.959Z,25.20
2018-05-08T10:49:01.029Z,25.40
2018-05-08T10:51:29.116Z,26.50
2018-05-08T10:53:57.204Z,26.40
2018-05-08T10:56:25.296Z,26.40
2018-05-08T10:58:53.361Z,25.80
2018-05-08T11:14:49.669Z,26.60
2018-05-08T11:17:17.806Z,26.90
2018-05-08T11:19:45.952Z,26.50
2018-05-08T11:22:14.653Z,26.20
2018-05-08T11:24:42.945Z,26.00
2018-05-08T11:27:11.107Z,27.20
2018-05-08T11:29:39.201Z,27.60
2018-05-08T11:32:07.320Z,27.70
2018-05-08T11:34:35.423Z,26.80
2018-05-08T11:37:03.569Z,25.50
2018-05-08T11:39:31.691Z,25.80
2018-05-08T11:41:59.815Z,26.20
2018-05-08T11:44:27.933Z,26.70
2018-05-08T11:46:57.288Z,27.00
2018-05-08T11:49:26.149Z,27.00
2018-05-08T11:51:54.270Z,27.00
2018-05-08T11:54:22.396Z,25.50
2018-05-08T11:56:50.497Z,25.70
2018-05-08T11:59:18.614Z,25.80
2018-05-08T12:01:46.747Z,25.70
2018-05-08T12:04:15.625Z,25.80
2018-05-08T12:06:43.724Z,25.80
2018-05-08T12:09:12.658Z,26.10
2018-05-08T12:11:41.508Z,25.90
2018-05-08T12:14:09.621Z,25.80
2018-05-08T12:16:37.758Z,25.40
2018-05-08T12:19:06.619Z,25.10
2018-05-08T12:21:34.775Z,25.00
2018-05-08T12:24:02.894Z,24.80
2018-05-08T12:26:31.875Z,25.80
2018-05-08T12:29:00.895Z,25.70
2018-05-08T12:31:29.013Z,26.70
2018-05-08T12:33:57.135Z,26.80
2018-05-08T12:36:26.010Z,26.60
2018-05-08T12:38:54.223Z,26.60
2018-05-08T12:41:22.357Z,26.70
2018-05-08T12:43:50.495Z,26.40
2018-05-08T12:46:18.615Z,25.70
2018-05-08T12:48:46.901Z,25.80
2018-05-08T12:51:15.807Z,26.10
2018-05-08T12:53:44.700Z,26.80
2018-05-08T12:56:15.729Z,26.70
2018-05-08T12:58:43.833Z,26.70
2018-05-08T13:01:11.966Z,26.00
2018-05-08T13:03:40.423Z,26.10
2018-05-08T13:06:08.530Z,26.10
2018-05-08T13:08:37.362Z,26.40
2018-05-08T13:11:05.593Z,25.90
2018-05-08T13:13:33.984Z,26.20
2018-05-08T13:16:02.156Z,26.30
2018-05-08T13:18:30.254Z,25.50
2018-05-08T13:20:58.374Z,25.40
2018-05-08T13:23:29.297Z,25.30
2018-05-08T13:25:57.427Z,25.50
2018-05-08T13:28:26.334Z,25.40
2018-05-08T13:30:55.230Z,24.90
2018-05-08T13:33:24.689Z,24.90
2018-05-08T13:35:52.816Z,25.60
2018-05-08T13:38:21.067Z,25.30
2018-05-08T13:40:49.277Z,24.40
2018-05-08T13:43:17.545Z,24.40
2018-05-08T13:45:47.107Z,24.60
2018-05-08T13:48:16.348Z,24.20
2018-05-08T13:50:45.886Z,23.40
2018-05-08T13:53:21.695Z,23.60
2018-05-08T13:55:54.777Z,23.30
2018-05-08T14:00:58.717Z,23.00
2018-05-08T14:03:28.081Z,24.30
2018-05-08T14:05:56.196Z,24.10
2018-05-08T14:08:24.331Z,24.30
2018-05-08T14:10:52.439Z,23.60
2018-05-08T14:13:20.570Z,23.70
2018-05-08T14:15:48.690Z,23.80
2018-05-08T14:18:16.812Z,23.30
2018-05-08T14:20:44.935Z,23.90
2018-05-08T14:23:13.062Z,23.70
2018-05-08T14:25:41.181Z,25.30
2018-05-08T14:28:09.794Z,25.30
2018-05-08T14:30:38.690Z,25.60
2018-05-08T14:33:07.642Z,24.90
2018-05-08T14:35:35.748Z,24.90
2018-05-08T14:38:04.656Z,26.60
2018-05-08T14:40:32.751Z,26.40
2018-05-08T14:43:02.118Z,24.40
2018-05-08T14:45:30.267Z,28.00
2018-05-08T14:47:58.565Z,26.40
2018-05-08T14:50:26.703Z,24.50
2018-05-08T14:52:54.953Z,24.70
2018-05-08T14:55:23.134Z,24.90
2018-05-08T14:57:51.248Z,26.20
2018-05-08T15:00:19.359Z,27.60
2018-05-08T15:02:48.289Z,24.30
2018-05-08T15:05:16.406Z,24.20
2018-05-08T15:07:44.534Z,25.60
2018-05-08T15:10:12.706Z,24.20
2018-05-08T15:12:40.812Z,24.60
2018-05-08T15:15:09.046Z,23.10
2018-05-08T15:17:37.155Z,23.30
2018-05-08T15:20:05.647Z,26.60
2018-05-08T15:22:34.027Z,23.80
2018-05-08T15:25:02.199Z,26.80
2018-05-08T15:27:30.328Z,23.30
2018-05-08T15:29:59.412Z,24.70
2018-05-08T15:32:27.537Z,24.60
2018-05-08T15:34:55.680Z,23.40
2018-05-08T15:37:24.738Z,24.20
2018-05-08T15:39:52.884Z,24.20
2018-05-08T15:42:21.007Z,24.80
2018-05-08T15:44:49.126Z,23.80
2018-05-08T15:47:17.795Z,25.40
2018-05-08T15:49:46.703Z,25.20
2018-05-08T15:52:14.827Z,25.20
2018-05-08T15:54:42.936Z,25.90
2018-05-08T15:57:11.877Z,24.30
2018-05-08T15:59:40.018Z,24.20
2018-05-08T16:02:08.178Z,25.60
2018-05-08T16:04:36.312Z,25.80
2018-05-08T16:07:04.742Z,26.90
2018-05-08T16:09:32.872Z,25.30
2018-05-08T16:12:01.008Z,25.60
2018-05-08T16:14:32.379Z,25.40
2018-05-08T16:17:04.094Z,25.30
2018-05-08T16:19:33.021Z,26.60
2018-05-08T16:22:01.151Z,26.50
2018-05-08T16:24:29.289Z,25.80
2018-05-08T16:26:57.415Z,26.00
2018-05-08T16:29:26.333Z,26.90
2018-05-08T16:31:54.525Z,26.90
2018-05-08T16:34:22.636Z,25.10
2018-05-08T16:36:50.797Z,27.10
2018-05-08T16:39:18.944Z,25.10
2018-05-08T16:41:47.092Z,26.50
2018-05-08T16:44:15.961Z,25.70
2018-05-08T16:46:44.078Z,25.70
2018-05-08T16:49:12.206Z,27.10
2018-05-08T16:51:40.327Z,28.00
2018-05-08T16:54:08.461Z,26.90
2018-05-08T16:56:36.658Z,26.60
2018-05-08T16:59:04.787Z,28.40
2018-05-08T17:01:32.939Z,26.60
2018-05-08T17:04:01.071Z,27.20
2018-05-08T17:06:30.010Z,27.40
2018-05-08T17:08:58.160Z,27.40
2018-05-08T17:11:27.048Z,28.80
2018-05-08T17:13:55.951Z,28.70
2018-05-08T17:16:24.130Z,28.60
2018-05-08T17:18:52.245Z,27.30
2018-05-08T17:21:20.471Z,27.70
2018-05-08T17:23:48.581Z,27.30
2018-05-08T17:26:16.722Z,27.00
2018-05-08T17:28:45.697Z,28.30
2018-05-08T17:31:13.971Z,28.20
2018-05-08T17:33:42.925Z,28.90
2018-05-08T17:36:13.121Z,28.30
2018-05-08T17:38:42.010Z,29.10
2018-05-08T17:41:10.946Z,28.50
2018-05-08T17:43:39.075Z,28.40
2018-05-08T17:46:07.233Z,28.30
2018-05-08T17:48:35.435Z,30.50
2018-05-08T17:51:05.529Z,32.30
2018-05-08T17:56:12.324Z,31.00
2018-05-08T17:58:41.420Z,30.10
2018-05-08T18:01:10.059Z,32.10
2018-05-08T18:03:44.587Z,31.90
2018-05-08T18:06:27.377Z,34.00
2018-05-08T18:08:55.509Z,34.80
2018-05-08T18:11:23.734Z,34.10
2018-05-08T18:13:52.606Z,34.70
2018-05-08T18:16:20.974Z,34.80
2018-05-08T18:18:49.013Z,36.50
2018-05-08T18:21:17.062Z,36.10
2018-05-08T18:23:45.119Z,35.30
2018-05-08T18:26:13.253Z,37.20
2018-05-08T18:28:41.333Z,38.50
2018-05-08T18:31:09.373Z,36.40
2018-05-08T18:33:37.447Z,36.90
2018-05-08T18:36:06.263Z,37.10
2018-05-08T18:38:34.323Z,37.20
2018-05-08T18:41:02.373Z,38.40
2018-05-08T18:43:30.432Z,39.30
2018-05-08T18:45:58.469Z,38.50
2018-05-08T18:48:27.297Z,40.20
2018-05-08T18:50:55.337Z,40.20
2018-05-08T18:53:24.177Z,41.20
2018-05-08T18:55:52.233Z,41.20
2018-05-08T18:58:21.058Z,41.90
2018-05-08T19:00:55.673Z,41.80
2018-05-08T19:03:24.127Z,42.00
2018-05-08T19:05:53.672Z,41.40
2018-05-08T19:08:21.814Z,41.40
2018-05-08T19:13:46.792Z,41.20
2018-05-08T19:16:15.608Z,41.50
2018-05-08T19:18:49.378Z,41.50
2018-05-08T19:21:17.480Z,43.80
2018-05-08T19:23:51.155Z,43.30
2018-05-08T19:26:19.204Z,42.80
2018-05-08T19:28:52.950Z,42.30
2018-05-08T19:31:20.994Z,43.20
2018-05-08T19:33:49.057Z,43.70
2018-05-08T19:36:23.625Z,44.60
2018-05-08T19:38:52.446Z,43.50
2018-05-08T19:41:20.485Z,43.50
2018-05-08T19:43:48.546Z,44.60
2018-05-08T19:46:16.594Z,44.70
2018-05-08T19:48:45.404Z,43.90
2018-05-08T19:51:13.448Z,43.90
2018-05-08T19:53:42.437Z,44.30
2018-05-08T19:56:10.517Z,44.20
2018-05-08T19:58:39.343Z,44.40
2018-05-08T20:01:07.380Z,44.30
2018-05-08T20:03:36.196Z,45.40
2018-05-08T20:06:04.258Z,45.30
2018-05-08T20:08:32.317Z,46.00
2018-05-08T20:11:00.353Z,44.70
2018-05-08T20:13:28.417Z,44.60
2018-05-08T20:15:56.464Z,45.30
2018-05-08T20:18:25.291Z,45.10
2018-05-08T20:20:53.343Z,45.10
2018-05-08T20:23:21.516Z,46.10
2018-05-08T20:25:49.577Z,47.50
2018-05-08T20:28:17.649Z,46.70
2018-05-08T20:30:45.791Z,46.50
2018-05-08T20:33:13.784Z,46.60
2018-05-08T20:35:41.853Z,47.20
2018-05-08T20:38:09.919Z,47.30
2018-05-08T20:40:37.979Z,47.20
2018-05-08T20:43:06.649Z,47.50
2018-05-08T20:45:35.476Z,47.90
2018-05-08T20:48:03.525Z,47.90
2018-05-08T20:50:31.586Z,48.10
2018-05-08T20:52:59.629Z,47.90
2018-05-08T20:55:30.698Z,48.50
2018-05-08T20:57:58.664Z,48.50
2018-05-08T21:00:26.717Z,48.80
2018-05-08T21:02:55.533Z,50.20
2018-05-08T21:05:23.584Z,50.10
2018-05-08T21:07:51.689Z,50.10
2018-05-08T21:10:20.466Z,50.50
2018-05-08T21:12:48.525Z,50.50
2018-05-08T21:15:16.609Z,51.40
2018-05-08T21:17:44.717Z,51.00
2018-05-08T21:20:12.721Z,51.20
2018-05-08T21:22:41.537Z,52.30
2018-05-08T21:25:09.602Z,52.30
2018-05-08T21:27:43.325Z,53.00
2018-05-08T21:30:17.203Z,52.90
2018-05-08T21:32:45.249Z,53.10
2018-05-08T21:35:14.069Z,54.00
2018-05-08T21:37:42.117Z,53.90
2018-05-08T21:40:10.938Z,55.20
2018-05-08T21:42:38.988Z,55.20
2018-05-08T21:45:07.827Z,55.00
2018-05-08T21:47:35.872Z,55.00
2018-05-08T21:50:03.937Z,55.10
2018-05-08T21:52:31.982Z,55.70
2018-05-08T21:55:00.804Z,56.50
2018-05-08T21:57:28.844Z,56.40
2018-05-08T21:59:57.669Z,56.70
2018-05-08T22:02:25.717Z,56.70
2018-05-08T22:04:53.765Z,56.70
2018-05-08T22:07:22.592Z,57.60
2018-05-08T22:09:50.632Z,57.60
2018-05-08T22:12:18.677Z,58.20
2018-05-08T22:14:46.725Z,58.00
2018-05-08T22:17:14.769Z,58.00
2018-05-08T22:19:42.823Z,58.70
2018-05-08T22:22:10.867Z,58.80
2018-05-08T22:24:39.359Z,58.60
2018-05-08T22:27:08.169Z,59.10
2018-05-08T22:29:36.226Z,59.10
2018-05-08T22:32:05.032Z,59.30
2018-05-08T22:34:33.069Z,59.30
2018-05-08T22:37:01.897Z,58.50
2018-05-08T22:39:29.954Z,58.50
2018-05-08T22:41:58.008Z,58.00
2018-05-08T22:44:26.046Z,57.60
2018-05-08T22:46:54.158Z,57.30
2018-05-08T22:49:22.208Z,57.30
2018-05-08T22:51:50.259Z,57.50
2018-05-08T22:54:18.304Z,56.90
2018-05-08T22:56:46.368Z,57.00
2018-05-08T22:59:14.438Z,56.60
2018-05-08T23:01:43.232Z,56.90
2018-05-08T23:04:11.283Z,56.80
2018-05-08T23:06:39.339Z,56.40
2018-05-08T23:09:07.381Z,56.10
2018-05-08T23:11:35.434Z,55.90
2018-05-08T23:14:03.499Z,55.70
2018-05-08T23:16:31.570Z,55.70
2018-05-08T23:18:59.621Z,55.80
2018-05-08T23:21:27.682Z,55.50
2018-05-08T23:23:55.717Z,55.40
2018-05-08T23:26:23.768Z,55.40
2018-05-08T23:28:51.824Z,55.30
2018-05-08T23:31:19.884Z,55.60
2018-05-08T23:33:47.942Z,55.30
2018-05-08T23:36:16.024Z,55.50
2018-05-08T23:38:44.069Z,55.20
2018-05-08T23:41:12.178Z,55.50
2018-05-08T23:43:40.283Z,55.60
2018-05-08T23:46:08.378Z,55.60
2018-05-08T23:48:37.223Z,55.80
2018-05-08T23:51:05.272Z,55.80
2018-05-08T23:53:33.369Z,56.40
2018-05-08T23:56:01.431Z,56.10
2018-05-08T23:58:29.490Z,56.20
